Time;durP1;ratioP1;P1;durP2;ratioP2;P2;SDS_P1;SDS_P2;PMS_P1;PMS_P2;Temp;Humidity;BMP_temperature;BMP_pressure;BME280_temperature;BME280_humidity;BME280_pressure;Samples;Min_cycle;Max_cycle;Signal;HPM_P1;HPM_P2
2022/06/26 00:01:36;;;;;;;;;;;;;;;19.83;84.46;152637.28;1752380;81;20436;-60
2022/06/26 00:04:03;;;;;;;;;;;;;;;19.80;84.71;152629.44;1752498;82;20187;-60
2022/06/26 00:06:30;;;;;;;;;;;;;;;19.79;85.09;152626.84;1752454;82;20160;-60
2022/06/26 00:08:57;;;;;;;;;;;;;;;19.74;85.32;152616.34;1751490;82;20175;-60
2022/06/26 00:11:24;;;;;;;;;;;;;;;19.68;85.74;152600.69;1749515;82;21242;-60
2022/06/26 00:13:51;;;;;;;;;;;;;;;19.64;86.20;152588.92;1749706;81;20442;-61
2022/06/26 00:16:19;;;;;;;;;;;;;;;19.60;86.64;152579.81;1749614;82;20166;-61
2022/06/26 00:18:45;;;;;;;;;;;;;;;19.57;87.00;152571.98;1749617;82;20416;-61
2022/06/26 00:21:12;;;;;;;;;;;;;;;19.55;87.40;152566.72;1749309;82;20140;-61
2022/06/26 00:23:39;;;;;;;;;;;;;;;19.54;87.77;152565.44;1749529;82;21144;-61
2022/06/26 00:26:06;;;;;;;;;;;;;;;19.55;88.05;152568.05;1749629;82;20190;-61
2022/06/26 00:28:33;;;;;;;;;;;;;;;19.58;88.38;152574.59;1749566;82;20222;-59
2022/06/26 00:31:01;;;;;;;;;;;;;;;19.60;88.54;152579.81;1749547;81;20439;-59
2022/06/26 00:33:28;;;;;;;;;;;;;;;19.65;88.64;152591.53;1749620;81;20147;-60
2022/06/26 00:35:55;;;;;;;;;;;;;;;19.67;88.54;152596.75;1749612;82;20477;-60
2022/06/26 00:38:22;;;;;;;;;;;;;;;19.67;88.63;152598.08;1749439;82;20162;-61
2022/06/26 00:40:49;;;;;;;;;;;;;;;19.65;88.64;152592.86;1749477;81;20198;-61
2022/06/26 00:43:16;;;;;;;;;;;;;;;19.62;88.78;152585.03;1749587;81;20135;-61
2022/06/26 00:45:42;;;;;;;;;;;;;;;19.60;88.98;152579.81;1749603;82;20167;-61
2022/06/26 00:48:10;;;;;;;;;;;;;;;19.58;89.41;152575.88;1749755;82;21314;-60
2022/06/26 00:50:36;;;;;;;;;;;;;;;19.58;89.51;152575.88;1749348;82;20170;-61
2022/06/26 00:53:03;;;;;;;;;;;;;;;19.56;89.84;152569.33;1749543;82;20392;-61
2022/06/26 00:55:30;;;;;;;;;;;;;;;19.53;89.93;152561.50;1696842;82;20182;-61
2022/06/26 00:57:57;;;;;;;;;;;;;;;19.51;90.11;152556.28;1749601;81;20187;-60
2022/06/26 01:00:25;;;;;;;;;;;;;;;19.47;90.38;152547.19;1749428;82;21255;-60
2022/06/26 01:02:52;;;;;;;;;;;;;;;19.44;90.60;152540.64;1749568;81;20206;-60
2022/06/26 01:05:19;;;;;;;;;;;;;;;19.40;90.69;152530.20;1749589;81;20197;-59
2022/06/26 01:07:46;;;;;;;;;;;;;;;19.36;91.01;152519.77;1749615;81;20120;-60
2022/06/26 01:10:12;;;;;;;;;;;;;;;19.35;91.22;152517.16;1749457;82;20139;-60
2022/06/26 01:12:40;;;;;;;;;;;;;;;19.34;91.48;152514.50;1749489;82;21157;-59
2022/06/26 01:15:09;;;;;;;;;;;;;;;19.35;91.47;152517.16;1749547;82;20136;-60
2022/06/26 01:17:36;;;;;;;;;;;;;;;19.30;91.58;152505.39;1749635;82;20163;-61
2022/06/26 01:20:05;;;;;;;;;;;;;;;19.26;91.89;152494.95;1749346;81;21003;-61
2022/06/26 01:22:32;;;;;;;;;;;;;;;19.21;92.16;152480.59;1749436;81;20206;-61
2022/06/26 01:24:59;;;;;;;;;;;;;;;19.13;92.47;152462.33;1749953;82;21107;-60
2022/06/26 01:27:28;;;;;;;;;;;;;;;19.09;92.93;152451.84;1749353;82;20079;-62
2022/06/26 01:29:55;;;;;;;;;;;;;;;19.03;93.33;152437.53;1749542;82;20159;-59
2022/06/26 01:32:22;;;;;;;;;;;;;;;19.00;93.79;152428.38;1749380;82;20415;-63
2022/06/26 01:34:50;;;;;;;;;;;;;;;18.97;94.11;152420.50;1749659;82;20404;-59
2022/06/26 01:37:18;;;;;;;;;;;;;;;18.95;94.57;152415.28;1749558;82;21337;-60
2022/06/26 01:39:46;;;;;;;;;;;;;;;18.94;94.92;152413.95;1749198;82;20416;-60
2022/06/26 01:42:13;;;;;;;;;;;;;;;18.90;95.25;152403.53;1749484;82;20172;-61
2022/06/26 01:44:41;;;;;;;;;;;;;;;18.88;95.86;152399.59;1749380;81;20493;-59
2022/06/26 01:47:08;;;;;;;;;;;;;;;18.83;96.36;152386.55;1749459;82;20479;-60
2022/06/26 01:49:37;;;;;;;;;;;;;;;18.76;96.93;152369.58;1749318;82;21033;-60
2022/06/26 01:52:04;;;;;;;;;;;;;;;18.70;97.62;152353.92;1749389;82;20388;-60
2022/06/26 01:54:31;;;;;;;;;;;;;;;18.66;98.31;152342.16;1749638;81;20143;-60
2022/06/26 01:56:58;;;;;;;;;;;;;;;18.63;98.91;152335.67;1749481;81;20198;-61
2022/06/26 01:59:26;;;;;;;;;;;;;;;18.60;99.42;152329.13;1749379;82;20140;-60
2022/06/26 02:01:53;;;;;;;;;;;;;;;18.60;99.79;152329.13;1749721;82;20592;-60
2022/06/26 02:04:20;;;;;;;;;;;;;;;18.59;100.00;152326.52;1749508;82;20147;-61
2022/06/26 02:06:47;;;;;;;;;;;;;;;18.55;100.00;152316.09;1749620;82;20159;-60
2022/06/26 02:14:53;;;;;;;;;;;;;;;18.53;100.00;152310.88;1754160;82;21146;-60
2022/06/26 02:17:22;;;;;;;;;;;;;;;18.51;100.00;152305.66;1753977;80;20179;-60
2022/06/26 02:19:49;;;;;;;;;;;;;;;18.50;100.00;152303.06;1754441;81;20144;-60
2022/06/26 02:22:16;;;;;;;;;;;;;;;18.49;100.00;152300.44;1753920;80;20231;-59
2022/06/26 02:24:44;;;;;;;;;;;;;;;18.47;100.00;152295.23;1753972;82;20479;-60
2022/06/26 02:27:11;;;;;;;;;;;;;;;18.40;100.00;152276.94;1753944;82;22154;-59
2022/06/26 02:29:38;;;;;;;;;;;;;;;18.38;100.00;152271.72;1754178;81;20165;-59
2022/06/26 02:32:06;;;;;;;;;;;;;;;18.40;100.00;152276.94;1754038;80;20377;-59
2022/06/26 02:34:33;;;;;;;;;;;;;;;18.40;100.00;152276.94;1702035;83;20422;-59
2022/06/26 02:37:01;;;;;;;;;;;;;;;18.37;100.00;152269.11;1753993;82;20299;-59
2022/06/26 02:39:28;;;;;;;;;;;;;;;18.33;100.00;152261.28;1753927;82;21235;-59
2022/06/26 02:41:56;;;;;;;;;;;;;;;18.33;100.00;152259.97;1753842;80;20192;-59
2022/06/26 02:44:23;;;;;;;;;;;;;;;18.30;100.00;152253.47;1754028;80;20124;-59
2022/06/26 02:46:50;;;;;;;;;;;;;;;18.27;100.00;152244.33;1753862;82;20149;-60
2022/06/26 02:49:17;;;;;;;;;;;;;;;18.26;100.00;152243.03;1753997;80;20193;-60
2022/06/26 02:51:44;;;;;;;;;;;;;;;18.25;100.00;152240.44;1753840;82;21145;-60
2022/06/26 02:54:11;;;;;;;;;;;;;;;18.27;100.00;152245.66;1753751;82;20184;-60
2022/06/26 02:56:38;;;;;;;;;;;;;;;18.29;100.00;152250.86;1753972;82;20171;-60
2022/06/26 02:59:05;;;;;;;;;;;;;;;18.30;100.00;152253.47;1753982;80;20207;-60
2022/06/26 03:01:34;;;;;;;;;;;;;;;18.33;100.00;152259.97;1753908;82;20207;-60
2022/06/26 03:04:03;;;;;;;;;;;;;;;18.37;100.00;152270.44;1749471;82;20639;-60
2022/06/26 03:06:30;;;;;;;;;;;;;;;18.40;100.00;152276.94;1753727;80;20500;-59
2022/06/26 03:08:57;;;;;;;;;;;;;;;18.42;100.00;152283.47;1754101;80;20436;-59
2022/06/26 03:11:24;;;;;;;;;;;;;;;18.45;100.00;152289.97;1753825;80;20171;-60
2022/06/26 03:13:51;;;;;;;;;;;;;;;18.48;100.00;152297.84;1754308;80;20184;-59
2022/06/26 03:16:19;;;;;;;;;;;;;;;18.53;100.00;152310.88;1754146;80;21939;-59
2022/06/26 03:18:46;;;;;;;;;;;;;;;18.59;100.00;152326.52;1754104;82;21170;-59
2022/06/26 03:21:13;;;;;;;;;;;;;;;18.65;100.00;152339.56;1754144;80;20219;-60
2022/06/26 03:26:26;;;;;;;;;;;;;;;18.75;100.00;152366.97;1753970;82;20484;-59
2022/06/26 03:28:53;;;;;;;;;;;;;;;18.86;100.00;152393.09;1754177;80;21237;-60
2022/06/26 03:31:20;;;;;;;;;;;;;;;18.90;100.00;152404.84;1754022;80;20156;-60
2022/06/26 03:33:47;;;;;;;;;;;;;;;18.95;100.00;152416.56;1754262;80;20136;-60
2022/06/26 03:36:14;;;;;;;;;;;;;;;18.98;100.00;152423.11;1754197;80;20137;-61
2022/06/26 03:38:40;;;;;;;;;;;;;;;19.02;100.00;152433.59;1754159;80;20203;-61
2022/06/26 03:41:09;;;;;;;;;;;;;;;19.00;100.00;152428.38;1722574;83;21728;-61
2022/06/26 03:43:36;;;;;;;;;;;;;;;18.98;100.00;152424.44;1753922;82;20164;-61
2022/06/26 03:46:04;;;;;;;;;;;;;;;18.97;100.00;152420.50;1754152;80;20469;-61
2022/06/26 03:48:31;;;;;;;;;;;;;;;18.96;100.00;152417.89;1754047;82;20754;-61
2022/06/26 03:50:58;;;;;;;;;;;;;;;19.02;100.00;152433.59;1754563;81;20156;-61
2022/06/26 03:53:25;;;;;;;;;;;;;;;19.10;100.00;152454.45;1753886;80;21210;-61
2022/06/26 03:55:52;;;;;;;;;;;;;;;19.13;100.00;152462.33;1754157;80;20415;-60
2022/06/26 03:58:20;;;;;;;;;;;;;;;19.19;100.00;152476.64;1722354;83;20181;-60
2022/06/26 04:00:47;;;;;;;;;;;;;;;19.32;100.00;152509.28;1754030;82;20406;-60
2022/06/26 04:03:14;;;;;;;;;;;;;;;19.45;100.00;152543.25;1754216;80;20421;-60
2022/06/26 04:05:40;;;;;;;;;;;;;;;19.59;100.00;152577.20;1754286;80;22048;-61
2022/06/26 04:08:07;;;;;;;;;;;;;;;19.78;100.00;152624.17;1754011;82;20188;-61
2022/06/26 04:10:39;;;;;;;;;;;;;;;19.93;100.00;152662.12;1735464;81;20183;-61
2022/06/26 04:13:10;;;;;;;;;;;;;;;20.07;100.00;152698.67;1751682;81;20123;-61
2022/06/26 04:15:40;;;;;;;;;;;;;;;20.21;100.00;152733.94;1713921;83;20419;-61
2022/06/26 04:18:07;;;;;;;;;;;;;;;20.36;100.00;152770.53;1713939;83;21138;-61
2022/06/26 04:20:34;;;;;;;;;;;;;;;20.47;99.00;152799.28;1713691;83;20177;-61
2022/06/26 04:23:09;;;;;;;;;;;;;;;20.58;97.90;152828.00;1713842;83;20201;-61
2022/06/26 04:25:37;;;;;;;;;;;;;;;20.72;97.37;152862.00;1713788;83;21019;-61
2022/06/26 04:28:04;;;;;;;;;;;;;;;20.87;96.38;152901.22;1714009;83;20177;-61
2022/06/26 04:30:33;;;;;;;;;;;;;;;21.04;95.66;152943.05;1713326;83;21158;-61
2022/06/26 04:33:00;;;;;;;;;;;;;;;21.23;94.44;152991.42;1713799;83;20441;-61
2022/06/26 04:35:27;;;;;;;;;;;;;;;21.38;92.39;153029.33;1713845;83;20153;-61
2022/06/26 04:37:54;;;;;;;;;;;;;;;21.51;91.25;153060.67;1713883;83;20224;-61
2022/06/26 04:40:22;;;;;;;;;;;;;;;21.65;90.10;153096.02;1713879;83;20169;-60
2022/06/26 04:42:49;;;;;;;;;;;;;;;21.77;88.62;153126.08;1713831;83;21832;-60
2022/06/26 04:45:16;;;;;;;;;;;;;;;21.89;88.28;153157.48;1713944;83;20434;-60
2022/06/26 04:47:44;;;;;;;;;;;;;;;22.09;87.56;153208.47;1714053;83;20150;-60
2022/06/26 04:50:13;;;;;;;;;;;;;;;22.29;86.25;153259.50;1713712;83;20627;-60
2022/06/26 04:52:47;;;;;;;;;;;;;;;22.43;84.66;153294.80;1713585;83;20134;-60
2022/06/26 04:55:14;;;;;;;;;;;;;;;22.50;83.50;153310.53;1713764;83;21827;-60
2022/06/26 04:57:44;;;;;;;;;;;;;;;22.58;83.06;153331.50;1713761;83;20409;-60
2022/06/26 05:00:13;;;;;;;;;;;;;;;22.68;81.98;153357.63;1713792;83;20210;-60
2022/06/26 05:02:41;;;;;;;;;;;;;;;22.75;81.26;153374.66;1689635;83;20173;-60
2022/06/26 05:05:25;;;;;;;;;;;;;;;22.82;80.73;153391.67;1711253;83;20149;-60
2022/06/26 05:07:53;;;;;;;;;;;;;;;22.86;80.29;153402.13;1713057;83;21261;-60
2022/06/26 05:10:21;;;;;;;;;;;;;;;22.91;80.10;153413.91;1710777;83;20207;-60
2022/06/26 05:12:55;;;;;;;;;;;;;;;23.01;79.57;153440.06;1698006;84;20448;-60
2022/06/26 05:15:30;;;;;;;;;;;;;;;23.15;78.79;153475.39;1689055;84;20135;-60
2022/06/26 05:17:57;;;;;;;;;;;;;;;23.20;77.97;153487.17;1698152;84;20191;-60
2022/06/26 05:20:25;;;;;;;;;;;;;;;23.27;77.48;153505.53;1698066;84;21228;-60
2022/06/26 05:22:53;;;;;;;;;;;;;;;23.37;77.39;153530.39;1698056;84;20147;-60
2022/06/26 05:25:20;;;;;;;;;;;;;;;23.51;76.42;153565.72;1698135;84;20178;-59
2022/06/26 05:27:49;;;;;;;;;;;;;;;23.63;75.87;153597.16;1698096;84;20155;-59
2022/06/26 05:30:16;;;;;;;;;;;;;;;23.71;74.84;153618.09;1698147;84;20178;-59
2022/06/26 05:32:43;;;;;;;;;;;;;;;23.79;74.57;153636.45;1698060;84;21892;-59
2022/06/26 05:35:14;;;;;;;;;;;;;;;23.87;74.61;153658.70;1697760;84;20111;-59
2022/06/26 05:37:41;;;;;;;;;;;;;;;24.03;74.28;153699.33;1698089;84;20166;-59
2022/06/26 05:40:09;;;;;;;;;;;;;;;24.21;73.11;153742.53;1698059;84;20232;-59
2022/06/26 05:42:40;;;;;;;;;;;;;;;24.38;72.43;153785.72;1698087;84;20183;-59
2022/06/26 05:45:09;;;;;;;;;;;;;;;24.54;72.02;153827.64;1698039;84;22018;-59
2022/06/26 05:47:36;;;;;;;;;;;;;;;24.74;71.25;153877.42;1698260;84;20194;-60
2022/06/26 05:50:08;;;;;;;;;;;;;;;24.85;69.50;153906.25;1691435;84;20211;-59
2022/06/26 05:52:40;;;;;;;;;;;;;;;24.87;69.04;153910.20;1682007;84;20608;-60
2022/06/26 05:55:17;;;;;;;;;;;;;;;24.93;68.92;153924.63;1635191;87;20221;-60
2022/06/26 05:57:46;;;;;;;;;;;;;;;25.07;68.62;153959.98;1694472;84;21804;-60
2022/06/26 06:00:20;;;;;;;;;;;;;;;25.18;67.80;153990.13;1696257;84;20159;-60
2022/06/26 06:02:49;;;;;;;;;;;;;;;25.25;67.47;154007.16;1697509;84;20155;-60
2022/06/26 06:05:17;;;;;;;;;;;;;;;25.31;67.30;154021.53;1697747;84;20429;-59
2022/06/26 06:07:44;;;;;;;;;;;;;;;25.43;67.37;154053.00;1698012;84;20178;-59
2022/06/26 06:10:12;;;;;;;;;;;;;;;25.63;65.84;154102.86;1698012;84;21260;-59
2022/06/26 06:12:41;;;;;;;;;;;;;;;25.76;65.57;154135.61;1728687;83;20211;-60
2022/06/26 06:15:09;;;;;;;;;;;;;;;25.95;65.55;154182.81;1728569;83;20199;-60
2022/06/26 06:17:37;;;;;;;;;;;;;;;26.15;64.37;154233.91;1728439;83;20187;-60
2022/06/26 06:20:06;;;;;;;;;;;;;;;26.33;63.80;154278.53;1728586;83;20141;-61
2022/06/26 06:22:35;;;;;;;;;;;;;;;26.49;63.55;154319.16;1728041;83;21283;-61
2022/06/26 06:25:03;;;;;;;;;;;;;;;26.61;64.15;154350.66;1728535;83;20179;-61
2022/06/26 06:27:30;;;;;;;;;;;;;;;26.66;64.30;154362.47;1728399;83;20177;-61
2022/06/26 06:29:58;;;;;;;;;;;;;;;26.70;63.98;154374.23;1728221;83;20148;-61
2022/06/26 06:32:26;;;;;;;;;;;;;;;26.69;63.76;154370.33;1728570;83;20184;-61
2022/06/26 06:34:54;;;;;;;;;;;;;;;26.65;63.50;154359.84;1728651;83;21822;-61
2022/06/26 06:37:21;;;;;;;;;;;;;;;26.64;63.82;154357.19;1728691;83;20187;-61
2022/06/26 06:39:48;;;;;;;;;;;;;;;26.76;63.72;154388.67;1728727;83;20140;-61
2022/06/26 06:42:15;;;;;;;;;;;;;;;26.93;62.92;154431.98;1728558;83;20128;-60
2022/06/26 06:44:42;;;;;;;;;;;;;;;27.05;62.31;154460.86;1728603;83;20189;-60
2022/06/26 06:47:14;;;;;;;;;;;;;;;26.99;61.88;154446.42;1720756;83;21129;-59
2022/06/26 06:49:43;;;;;;;;;;;;;;;26.91;61.72;154425.45;1709089;83;20448;-60
2022/06/26 06:52:11;;;;;;;;;;;;;;;26.82;62.01;154403.11;1728884;83;20151;-60
2022/06/26 06:54:38;;;;;;;;;;;;;;;26.80;62.39;154397.88;1728432;83;20152;-61
2022/06/26 06:57:05;;;;;;;;;;;;;;;26.90;62.35;154424.13;1728709;83;20176;-60
2022/06/26 06:59:33;;;;;;;;;;;;;;;27.05;61.91;154462.14;1728717;83;21213;-61
2022/06/26 07:02:00;;;;;;;;;;;;;;;27.21;61.03;154502.84;1728580;83;20169;-60
2022/06/26 07:04:26;;;;;;;;;;;;;;;27.23;60.89;154506.75;1728532;83;20176;-61
2022/06/26 07:06:54;;;;;;;;;;;;;;;27.23;60.57;154506.75;1728727;83;20173;-60
2022/06/26 07:09:22;;;;;;;;;;;;;;;27.27;60.81;154517.23;1728861;83;20205;-61
2022/06/26 07:11:49;;;;;;;;;;;;;;;27.27;60.20;154517.23;1723115;81;21230;-60
2022/06/26 07:14:15;;;;;;;;;;;;;;;27.22;60.81;154504.13;1717835;83;20438;-61
2022/06/26 07:16:43;;;;;;;;;;;;;;;27.26;61.82;154515.94;1717865;83;20231;-60
2022/06/26 07:19:10;;;;;;;;;;;;;;;27.40;61.50;154551.34;1718084;83;20493;-61
2022/06/26 07:21:38;;;;;;;;;;;;;;;27.48;61.64;154569.70;1718220;83;20207;-61
2022/06/26 07:24:06;;;;;;;;;;;;;;;27.45;61.81;154564.47;1718047;83;21221;-61
2022/06/26 07:26:49;;;;;;;;;;;;;;;27.41;62.25;154553.97;1716482;83;20328;-61
2022/06/26 07:29:16;;;;;;;;;;;;;;;27.44;61.61;154561.84;1718116;83;20204;-61
2022/06/26 07:31:43;;;;;;;;;;;;;;;27.48;61.02;154569.70;1718095;83;20846;-59
2022/06/26 07:34:12;;;;;;;;;;;;;;;27.51;60.19;154577.56;1717779;83;20196;-60
2022/06/26 07:36:40;;;;;;;;;;;;;;;27.61;60.25;154603.88;1718043;83;21141;-61
2022/06/26 07:39:12;;;;;;;;;;;;;;;27.76;59.41;154640.63;1718056;83;20203;-60
2022/06/26 07:41:35;;;;;;;;;;;;;;;27.85;59.43;154664.23;1717545;82;20164;-61
2022/06/26 07:44:04;;;;;;;;;;;;;;;27.97;58.96;154695.75;1718068;83;20179;-61
2022/06/26 07:46:31;;;;;;;;;;;;;;;28.05;58.60;154715.38;1718062;83;20216;-61
2022/06/26 07:48:58;;;;;;;;;;;;;;;28.02;57.71;154708.84;1718118;83;22126;-61
2022/06/26 07:51:25;;;;;;;;;;;;;;;27.93;58.24;154685.20;1717908;83;20207;-61
2022/06/26 07:53:51;;;;;;;;;;;;;;;28.00;57.90;154703.61;1718108;83;20199;-61
2022/06/26 07:56:18;;;;;;;;;;;;;;;27.96;57.90;154693.06;1718131;83;20185;-61
2022/06/26 07:58:44;;;;;;;;;;;;;;;27.82;58.43;154656.36;1718140;83;20488;-60
2022/06/26 08:01:11;;;;;;;;;;;;;;;27.74;58.84;154638.02;1718235;83;21153;-60
2022/06/26 08:03:38;;;;;;;;;;;;;;;27.77;59.21;154643.25;1718139;83;20426;-60
2022/06/26 08:06:05;;;;;;;;;;;;;;;27.86;58.87;154668.19;1718119;83;20197;-60
2022/06/26 08:08:31;;;;;;;;;;;;;;;27.88;58.66;154673.44;1718138;83;20883;-61
2022/06/26 08:10:58;;;;;;;;;;;;;;;27.88;58.83;154672.09;1718283;81;20188;-61
2022/06/26 08:13:25;;;;;;;;;;;;;;;27.86;58.52;154666.84;1720449;83;22176;-61
2022/06/26 08:15:54;;;;;;;;;;;;;;;27.66;58.60;154615.70;1698156;83;20127;-60
2022/06/26 08:18:20;;;;;;;;;;;;;;;27.53;59.12;154582.91;1720609;83;20231;-61
2022/06/26 08:20:47;;;;;;;;;;;;;;;27.46;59.18;154565.80;1720606;83;20436;-61
2022/06/26 08:23:14;;;;;;;;;;;;;;;27.35;59.69;154536.91;1720841;83;20159;-61
2022/06/26 08:25:41;;;;;;;;;;;;;;;27.21;59.85;154502.84;1720681;83;21210;-61
2022/06/26 08:28:07;;;;;;;;;;;;;;;27.06;60.37;154463.47;1720678;83;20200;-61
2022/06/26 08:30:34;;;;;;;;;;;;;;;26.99;60.36;154447.75;1720756;83;20401;-61
2022/06/26 08:33:01;;;;;;;;;;;;;;;26.88;60.78;154420.22;1720722;83;20508;-62
2022/06/26 08:35:28;;;;;;;;;;;;;;;26.78;61.11;154393.91;1720626;83;20189;-62
2022/06/26 08:37:55;;;;;;;;;;;;;;;26.74;61.55;154383.44;1712645;83;21495;-62
2022/06/26 08:40:22;;;;;;;;;;;;;;;26.72;61.83;154378.19;1691782;85;20212;-62
2022/06/26 08:42:52;;;;;;;;;;;;;;;26.79;62.02;154396.53;1691918;85;20172;-61
2022/06/26 08:45:21;;;;;;;;;;;;;;;26.94;62.51;154434.59;1692050;85;20199;-62
2022/06/26 08:47:52;;;;;;;;;;;;;;;27.06;62.06;154464.77;1691881;82;20247;-62
2022/06/26 08:50:20;;;;;;;;;;;;;;;27.06;61.01;154464.77;1692089;85;21154;-62
2022/06/26 08:52:49;;;;;;;;;;;;;;;26.92;60.05;154429.36;1691861;84;20328;-62
2022/06/26 08:55:16;;;;;;;;;;;;;;;26.72;61.47;154378.19;1691819;85;20501;-62
2022/06/26 08:57:43;;;;;;;;;;;;;;;26.66;62.77;154363.75;1691903;85;20163;-62
2022/06/26 09:00:11;;;;;;;;;;;;;;;26.69;63.38;154371.61;1691961;85;20159;-63
2022/06/26 09:02:38;;;;;;;;;;;;;;;26.73;63.36;154380.81;1691762;85;21236;-62
2022/06/26 09:05:05;;;;;;;;;;;;;;;26.79;63.26;154396.53;1691690;84;20195;-62
2022/06/26 09:07:32;;;;;;;;;;;;;;;26.91;63.57;154425.45;1691798;85;20491;-62
2022/06/26 09:10:03;;;;;;;;;;;;;;;27.00;63.02;154449.03;1691966;85;20163;-61
2022/06/26 09:12:36;;;;;;;;;;;;;;;27.05;63.21;154460.86;1689044;84;20504;-62
2022/06/26 09:15:03;;;;;;;;;;;;;;;27.05;61.88;154460.86;1688880;85;21142;-61
2022/06/26 09:17:32;;;;;;;;;;;;;;;27.00;62.41;154449.03;1688440;85;20470;-61
2022/06/26 09:19:58;;;;;;;;;;;;;;;27.06;62.61;154464.77;1688691;85;20646;-62
2022/06/26 09:22:25;;;;;;;;;;;;;;;27.13;63.19;154483.16;1688447;85;21018;-61
2022/06/26 09:24:54;;;;;;;;;;;;;;;27.22;63.30;154504.13;1688601;85;20215;-61
2022/06/26 09:27:21;;;;;;;;;;;;;;;27.25;62.96;154513.31;1688714;85;22192;-62
2022/06/26 09:29:51;;;;;;;;;;;;;;;27.28;63.21;154521.19;1688381;85;20172;-62
2022/06/26 09:32:21;;;;;;;;;;;;;;;27.33;63.08;154533.00;1688475;84;20175;-62
2022/06/26 09:34:49;;;;;;;;;;;;;;;27.24;63.12;154510.70;1688518;85;20148;-61
2022/06/26 09:37:16;;;;;;;;;;;;;;;27.20;63.92;154498.88;1688536;85;20477;-61
2022/06/26 09:39:43;;;;;;;;;;;;;;;27.21;64.31;154502.84;1688594;85;21236;-61
2022/06/26 09:42:22;;;;;;;;;;;;;;;27.19;64.64;154496.27;1688752;85;20136;-61
2022/06/26 09:44:49;;;;;;;;;;;;;;;27.17;64.78;154492.31;1688603;85;20179;-62
2022/06/26 09:47:30;;;;;;;;;;;;;;;27.05;64.89;154460.86;1688692;85;20696;-62
2022/06/26 09:49:58;;;;;;;;;;;;;;;26.95;65.05;154435.94;1688953;85;20190;-61
2022/06/26 09:52:29;;;;;;;;;;;;;;;26.92;64.72;154429.36;1688550;85;21244;-61
2022/06/26 09:54:57;;;;;;;;;;;;;;;26.93;64.47;154430.70;1688636;85;20468;-62
2022/06/26 09:57:26;;;;;;;;;;;;;;;26.94;64.27;154434.59;1688471;85;20139;-62
2022/06/26 09:59:53;;;;;;;;;;;;;;;26.98;64.00;154443.80;1688802;85;20467;-61
2022/06/26 10:07:39;;;;;;;;;;;;;;;26.99;63.43;154446.42;1688504;85;20436;-61
2022/06/26 10:10:06;;;;;;;;;;;;;;;26.93;63.06;154430.70;1688828;85;20170;-61
2022/06/26 10:12:34;;;;;;;;;;;;;;;26.86;63.08;154414.97;1688708;83;20287;-62
2022/06/26 10:15:00;;;;;;;;;;;;;;;26.84;63.49;154409.64;1688785;85;20294;-62
2022/06/26 10:17:34;;;;;;;;;;;;;;;26.87;63.31;154417.59;1688395;85;21162;-62
2022/06/26 10:20:04;;;;;;;;;;;;;;;26.92;63.12;154429.36;1688584;85;20199;-62
2022/06/26 10:22:40;;;;;;;;;;;;;;;27.01;62.77;154453.00;1688475;85;20240;-62
2022/06/26 10:25:08;;;;;;;;;;;;;;;27.12;62.25;154480.53;1687489;85;20985;-62
2022/06/26 10:27:37;;;;;;;;;;;;;;;27.17;61.71;154493.64;1688431;85;20242;-62
2022/06/26 10:30:15;;;;;;;;;;;;;;;27.15;62.39;154488.41;1688523;85;21357;-61
2022/06/26 10:32:42;;;;;;;;;;;;;;;27.17;62.27;154493.64;1688521;85;20171;-61
2022/06/26 10:35:09;;;;;;;;;;;;;;;27.14;61.98;154485.78;1688600;85;20218;-61
2022/06/26 10:37:47;;;;;;;;;;;;;;;27.08;62.54;154468.72;1688455;85;20167;-61
2022/06/26 10:43:07;;;;;;;;;;;;;;;27.00;62.13;154449.03;1688577;85;22038;-62
2022/06/26 10:45:38;;;;;;;;;;;;;;;27.00;61.38;154450.38;1688468;85;20215;-62
2022/06/26 10:48:08;;;;;;;;;;;;;;;27.07;61.42;154466.09;1688583;85;20210;-62
2022/06/26 10:50:37;;;;;;;;;;;;;;;27.17;61.31;154493.64;1679211;85;20191;-61
2022/06/26 10:53:21;;;;;;;;;;;;;;;27.25;60.96;154511.98;1688529;85;20147;-62
2022/06/26 10:55:51;;;;;;;;;;;;;;;27.31;60.55;154527.77;1688373;85;21111;-62
2022/06/26 10:58:29;;;;;;;;;;;;;;;27.28;60.61;154519.86;1688469;83;20167;-62
2022/06/26 11:00:58;;;;;;;;;;;;;;;27.19;60.59;154497.59;1688673;85;20239;-61
2022/06/26 11:03:24;;;;;;;;;;;;;;;27.09;60.55;154472.67;1688452;85;20735;-61
2022/06/26 11:05:57;;;;;;;;;;;;;;;26.96;60.72;154438.56;1688688;85;20215;-62
2022/06/26 11:08:26;;;;;;;;;;;;;;;26.78;61.43;154392.63;1688502;85;21142;-63
2022/06/26 11:10:53;;;;;;;;;;;;;;;26.62;62.52;154353.27;1688661;85;20144;-62
2022/06/26 11:13:19;;;;;;;;;;;;;;;26.58;63.01;154342.78;1708943;83;20145;-62
2022/06/26 11:15:48;;;;;;;;;;;;;;;26.55;63.12;154336.22;1723856;83;20402;-62
2022/06/26 11:18:15;;;;;;;;;;;;;;;26.54;63.08;154333.59;1723904;83;20240;-62
2022/06/26 11:20:47;;;;;;;;;;;;;;;26.52;63.27;154328.36;1723721;83;21099;-62
2022/06/26 11:23:25;;;;;;;;;;;;;;;26.53;63.14;154329.69;1724020;83;20148;-62
2022/06/26 11:25:56;;;;;;;;;;;;;;;26.51;63.25;154325.73;1723859;83;20173;-63
2022/06/26 11:28:31;;;;;;;;;;;;;;;26.53;63.36;154330.98;1723811;83;20220;-63
2022/06/26 11:30:58;;;;;;;;;;;;;;;26.53;63.24;154330.98;1724225;83;20145;-62
2022/06/26 11:33:26;;;;;;;;;;;;;;;26.50;63.30;154323.12;1724388;83;20643;-61
2022/06/26 11:35:55;;;;;;;;;;;;;;;26.48;63.39;154317.87;1724187;83;20216;-62
2022/06/26 11:38:22;;;;;;;;;;;;;;;26.51;63.66;154324.41;1724098;83;20466;-62
2022/06/26 11:40:49;;;;;;;;;;;;;;;26.54;63.47;154333.59;1724057;83;20157;-62
2022/06/26 11:43:16;;;;;;;;;;;;;;;26.57;63.32;154340.17;1724237;83;20200;-61
2022/06/26 11:45:43;;;;;;;;;;;;;;;26.60;63.18;154349.31;1724066;83;21232;-61
2022/06/26 11:48:19;;;;;;;;;;;;;;;26.71;62.82;154376.86;1724096;83;20140;-61
2022/06/26 11:50:48;;;;;;;;;;;;;;;26.84;62.49;154409.64;1724176;83;20212;-61
2022/06/26 11:53:21;;;;;;;;;;;;;;;26.97;62.47;154441.19;1724245;83;20744;-62
2022/06/26 11:55:51;;;;;;;;;;;;;;;27.05;62.35;154460.86;1723509;83;20446;-62
2022/06/26 11:58:17;;;;;;;;;;;;;;;27.14;61.27;154485.78;1724002;83;21218;-62
2022/06/26 12:00:45;;;;;;;;;;;;;;;27.21;60.92;154501.50;1724202;83;20242;-62
2022/06/26 12:03:12;;;;;;;;;;;;;;;27.28;60.57;154519.86;1724357;83;20141;-62
2022/06/26 12:05:41;;;;;;;;;;;;;;;27.34;60.55;154535.63;1724170;83;20432;-62
2022/06/26 12:08:16;;;;;;;;;;;;;;;27.41;60.32;154553.97;1724101;83;20429;-62
2022/06/26 12:10:44;;;;;;;;;;;;;;;27.43;60.37;154559.22;1724243;83;21233;-62
2022/06/26 12:13:15;;;;;;;;;;;;;;;27.45;60.31;154564.47;1690664;84;20180;-61
2022/06/26 12:15:41;;;;;;;;;;;;;;;27.49;60.50;154573.66;1687358;85;20160;-62
2022/06/26 12:18:08;;;;;;;;;;;;;;;27.60;60.19;154601.25;1688625;85;20206;-63
2022/06/26 12:20:36;;;;;;;;;;;;;;;27.66;59.80;154615.70;1644821;85;20188;-63
2022/06/26 12:23:03;;;;;;;;;;;;;;;27.70;60.00;154627.47;1688782;85;21838;-63
2022/06/26 12:25:32;;;;;;;;;;;;;;;27.66;59.55;154615.70;1688759;85;20174;-63
2022/06/26 12:27:59;;;;;;;;;;;;;;;27.56;59.87;154590.78;1688264;85;20540;-61
2022/06/26 12:30:28;;;;;;;;;;;;;;;27.45;60.60;154564.47;1688735;85;20232;-62
2022/06/26 12:32:56;;;;;;;;;;;;;;;27.35;61.17;154538.25;1688557;84;20179;-63
2022/06/26 12:35:23;;;;;;;;;;;;;;;27.15;61.95;154488.41;1688726;85;21203;-63
2022/06/26 12:37:50;;;;;;;;;;;;;;;27.06;63.71;154464.77;1688552;85;20131;-61
2022/06/26 12:40:17;;;;;;;;;;;;;;;27.02;65.01;154454.28;1688636;85;20341;-62
2022/06/26 12:42:43;;;;;;;;;;;;;;;27.01;65.19;154451.66;1688740;85;20152;-62
2022/06/26 12:45:11;;;;;;;;;;;;;;;27.02;65.05;154455.62;1688687;85;20179;-62
2022/06/26 12:47:37;;;;;;;;;;;;;;;26.98;65.74;154443.80;1688481;85;21897;-62
2022/06/26 12:50:05;;;;;;;;;;;;;;;26.90;66.13;154422.83;1688481;85;20170;-62
2022/06/26 12:52:32;;;;;;;;;;;;;;;26.86;66.10;154414.97;1688512;85;20173;-63
2022/06/26 12:55:06;;;;;;;;;;;;;;;26.84;65.70;154409.64;1688585;85;20680;-61
2022/06/26 12:57:34;;;;;;;;;;;;;;;26.83;65.65;154405.72;1688285;85;20471;-62